sensor_id;sensor_type;location;lat;lon;timestamp;P1;durP1;ratioP1;P2;durP2;ratioP2
7195;SDS011;3639;51.308;5.624;2023-11-19T00:00:24;8.47;;;5.80;;
7195;SDS011;3639;51.308;5.624;2023-11-19T00:02:50;7.83;;;6.47;;
7195;SDS011;3639;51.308;5.624;2023-11-19T00:05:16;11.83;;;6.70;;
7195;SDS011;3639;51.308;5.624;2023-11-19T00:07:42;13.43;;;6.20;;
7195;SDS011;3639;51.308;5.624;2023-11-19T00:10:11;9.20;;;6.10;;
7195;SDS011;3639;51.308;5.624;2023-11-19T00:12:44;10.93;;;5.13;;
7195;SDS011;3639;51.308;5.624;2023-11-19T00:15:11;6.00;;;5.00;;
7195;SDS011;3639;51.308;5.624;2023-11-19T00:17:44;6.33;;;4.77;;
7195;SDS011;3639;51.308;5.624;2023-11-19T00:20:11;8.50;;;5.03;;
7195;SDS011;3639;51.308;5.624;2023-11-19T00:22:37;7.53;;;5.30;;
7195;SDS011;3639;51.308;5.624;2023-11-19T00:25:03;8.20;;;5.67;;
7195;SDS011;3639;51.308;5.624;2023-11-19T00:27:29;6.47;;;5.10;;
7195;SDS011;3639;51.308;5.624;2023-11-19T00:29:55;7.57;;;5.40;;
7195;SDS011;3639;51.308;5.624;2023-11-19T00:32:21;8.03;;;5.40;;
7195;SDS011;3639;51.308;5.624;2023-11-19T00:34:47;7.90;;;5.00;;
7195;SDS011;3639;51.308;5.624;2023-11-19T00:37:13;6.23;;;5.20;;
7195;SDS011;3639;51.308;5.624;2023-11-19T00:39:40;7.90;;;4.63;;
7195;SDS011;3639;51.308;5.624;2023-11-19T00:42:06;9.43;;;5.33;;
7195;SDS011;3639;51.308;5.624;2023-11-19T00:44:31;7.70;;;4.40;;
7195;SDS011;3639;51.308;5.624;2023-11-19T00:46:57;9.57;;;5.33;;
7195;SDS011;3639;51.308;5.624;2023-11-19T00:49:23;6.00;;;4.90;;
7195;SDS011;3639;51.308;5.624;2023-11-19T00:51:49;7.07;;;5.50;;
7195;SDS011;3639;51.308;5.624;2023-11-19T00:54:14;6.83;;;4.70;;
7195;SDS011;3639;51.308;5.624;2023-11-19T00:56:40;13.17;;;5.20;;
7195;SDS011;3639;51.308;5.624;2023-11-19T00:59:05;8.50;;;4.70;;
7195;SDS011;3639;51.308;5.624;2023-11-19T01:01:31;7.83;;;4.93;;
7195;SDS011;3639;51.308;5.624;2023-11-19T01:03:57;10.53;;;4.73;;
7195;SDS011;3639;51.308;5.624;2023-11-19T01:06:29;13.87;;;4.40;;
7195;SDS011;3639;51.308;5.624;2023-11-19T01:08:55;9.50;;;4.30;;
7195;SDS011;3639;51.308;5.624;2023-11-19T01:11:22;6.17;;;4.03;;
7195;SDS011;3639;51.308;5.624;2023-11-19T01:13:48;10.87;;;4.30;;
7195;SDS011;3639;51.308;5.624;2023-11-19T01:16:14;10.50;;;3.63;;
7195;SDS011;3639;51.308;5.624;2023-11-19T01:18:39;13.27;;;3.93;;
7195;SDS011;3639;51.308;5.624;2023-11-19T01:21:05;10.83;;;3.83;;
7195;SDS011;3639;51.308;5.624;2023-11-19T01:23:30;12.40;;;3.50;;
7195;SDS011;3639;51.308;5.624;2023-11-19T01:25:57;6.57;;;3.37;;
7195;SDS011;3639;51.308;5.624;2023-11-19T01:28:23;9.80;;;3.87;;
7195;SDS011;3639;51.308;5.624;2023-11-19T01:30:52;13.40;;;4.13;;
7195;SDS011;3639;51.308;5.624;2023-11-19T01:33:18;11.43;;;3.70;;
7195;SDS011;3639;51.308;5.624;2023-11-19T01:35:46;13.87;;;3.53;;
7195;SDS011;3639;51.308;5.624;2023-11-19T01:38:12;11.97;;;3.87;;
7195;SDS011;3639;51.308;5.624;2023-11-19T01:40:37;13.47;;;3.20;;
7195;SDS011;3639;51.308;5.624;2023-11-19T01:43:03;10.37;;;3.50;;
7195;SDS011;3639;51.308;5.624;2023-11-19T01:45:29;13.27;;;3.67;;
7195;SDS011;3639;51.308;5.624;2023-11-19T01:47:56;16.43;;;3.73;;
7195;SDS011;3639;51.308;5.624;2023-11-19T01:50:23;23.73;;;3.77;;
7195;SDS011;3639;51.308;5.624;2023-11-19T01:52:53;14.47;;;3.70;;
7195;SDS011;3639;51.308;5.624;2023-11-19T01:55:22;11.90;;;3.93;;
7195;SDS011;3639;51.308;5.624;2023-11-19T01:57:49;14.83;;;3.60;;
7195;SDS011;3639;51.308;5.624;2023-11-19T02:00:16;13.37;;;3.63;;
7195;SDS011;3639;51.308;5.624;2023-11-19T02:02:44;11.83;;;3.83;;
7195;SDS011;3639;51.308;5.624;2023-11-19T02:05:11;15.63;;;3.87;;
7195;SDS011;3639;51.308;5.624;2023-11-19T02:07:38;13.87;;;3.90;;
7195;SDS011;3639;51.308;5.624;2023-11-19T02:10:04;13.30;;;3.67;;
7195;SDS011;3639;51.308;5.624;2023-11-19T02:12:30;16.03;;;3.90;;
7195;SDS011;3639;51.308;5.624;2023-11-19T02:15:00;20.63;;;3.70;;
7195;SDS011;3639;51.308;5.624;2023-11-19T02:17:27;16.40;;;3.87;;
7195;SDS011;3639;51.308;5.624;2023-11-19T02:19:56;12.27;;;3.33;;
7195;SDS011;3639;51.308;5.624;2023-11-19T02:22:23;12.37;;;3.57;;
7195;SDS011;3639;51.308;5.624;2023-11-19T02:24:49;14.80;;;3.17;;
7195;SDS011;3639;51.308;5.624;2023-11-19T02:27:23;12.57;;;3.20;;
7195;SDS011;3639;51.308;5.624;2023-11-19T02:30:01;12.87;;;3.97;;
7195;SDS011;3639;51.308;5.624;2023-11-19T02:32:31;13.87;;;3.30;;
7195;SDS011;3639;51.308;5.624;2023-11-19T02:34:56;15.63;;;3.63;;
7195;SDS011;3639;51.308;5.624;2023-11-19T02:37:22;19.50;;;3.43;;
7195;SDS011;3639;51.308;5.624;2023-11-19T02:39:48;17.77;;;3.43;;
7195;SDS011;3639;51.308;5.624;2023-11-19T02:42:13;14.40;;;3.70;;
7195;SDS011;3639;51.308;5.624;2023-11-19T02:44:39;19.47;;;3.90;;
7195;SDS011;3639;51.308;5.624;2023-11-19T02:47:10;14.50;;;3.73;;
7195;SDS011;3639;51.308;5.624;2023-11-19T02:49:36;23.30;;;4.37;;
7195;SDS011;3639;51.308;5.624;2023-11-19T02:52:02;22.60;;;4.40;;
7195;SDS011;3639;51.308;5.624;2023-11-19T02:54:30;18.10;;;3.60;;
7195;SDS011;3639;51.308;5.624;2023-11-19T02:56:59;19.17;;;3.97;;
7195;SDS011;3639;51.308;5.624;2023-11-19T02:59:27;19.40;;;3.97;;
7195;SDS011;3639;51.308;5.624;2023-11-19T03:01:53;22.83;;;4.23;;
7195;SDS011;3639;51.308;5.624;2023-11-19T03:04:20;14.50;;;4.37;;
7195;SDS011;3639;51.308;5.624;2023-11-19T03:06:45;23.63;;;4.27;;
7195;SDS011;3639;51.308;5.624;2023-11-19T03:09:11;23.70;;;3.30;;
7195;SDS011;3639;51.308;5.624;2023-11-19T03:11:37;18.03;;;3.67;;
7195;SDS011;3639;51.308;5.624;2023-11-19T03:14:03;26.63;;;3.83;;
7195;SDS011;3639;51.308;5.624;2023-11-19T03:16:29;19.07;;;4.43;;
7195;SDS011;3639;51.308;5.624;2023-11-19T03:18:54;18.87;;;3.97;;
7195;SDS011;3639;51.308;5.624;2023-11-19T03:21:30;16.50;;;4.17;;
7195;SDS011;3639;51.308;5.624;2023-11-19T03:23:56;22.07;;;4.57;;
7195;SDS011;3639;51.308;5.624;2023-11-19T03:26:25;19.33;;;3.87;;
7195;SDS011;3639;51.308;5.624;2023-11-19T03:28:52;22.97;;;4.20;;
7195;SDS011;3639;51.308;5.624;2023-11-19T03:31:17;22.93;;;4.47;;
7195;SDS011;3639;51.308;5.624;2023-11-19T03:33:43;20.57;;;4.07;;
7195;SDS011;3639;51.308;5.624;2023-11-19T03:36:10;17.27;;;4.00;;
7195;SDS011;3639;51.308;5.624;2023-11-19T03:38:36;27.53;;;4.90;;
7195;SDS011;3639;51.308;5.624;2023-11-19T03:41:02;35.33;;;4.87;;
7195;SDS011;3639;51.308;5.624;2023-11-19T03:43:38;21.80;;;4.73;;
7195;SDS011;3639;51.308;5.624;2023-11-19T03:46:04;21.33;;;4.30;;
7195;SDS011;3639;51.308;5.624;2023-11-19T03:48:40;20.40;;;4.27;;
7195;SDS011;3639;51.308;5.624;2023-11-19T03:51:06;13.50;;;4.13;;
7195;SDS011;3639;51.308;5.624;2023-11-19T03:53:31;26.83;;;4.87;;
7195;SDS011;3639;51.308;5.624;2023-11-19T03:55:57;27.17;;;5.73;;
7195;SDS011;3639;51.308;5.624;2023-11-19T03:58:22;22.70;;;4.33;;
7195;SDS011;3639;51.308;5.624;2023-11-19T04:00:48;23.40;;;4.33;;
7195;SDS011;3639;51.308;5.624;2023-11-19T04:03:13;19.57;;;4.07;;
7195;SDS011;3639;51.308;5.624;2023-11-19T04:05:39;17.90;;;4.13;;
7195;SDS011;3639;51.308;5.624;2023-11-19T04:08:04;19.03;;;4.00;;
7195;SDS011;3639;51.308;5.624;2023-11-19T04:10:30;20.73;;;3.73;;
7195;SDS011;3639;51.308;5.624;2023-11-19T04:12:56;23.70;;;4.90;;
7195;SDS011;3639;51.308;5.624;2023-11-19T04:15:21;17.07;;;3.93;;
7195;SDS011;3639;51.308;5.624;2023-11-19T04:17:47;23.37;;;5.37;;
7195;SDS011;3639;51.308;5.624;2023-11-19T04:20:13;26.73;;;4.17;;
7195;SDS011;3639;51.308;5.624;2023-11-19T04:22:39;21.20;;;4.47;;
7195;SDS011;3639;51.308;5.624;2023-11-19T04:25:05;14.17;;;3.50;;
7195;SDS011;3639;51.308;5.624;2023-11-19T04:27:31;25.90;;;4.47;;
7195;SDS011;3639;51.308;5.624;2023-11-19T04:29:57;19.67;;;3.83;;
7195;SDS011;3639;51.308;5.624;2023-11-19T04:32:22;22.50;;;4.17;;
7195;SDS011;3639;51.308;5.624;2023-11-19T04:34:50;30.30;;;4.57;;
7195;SDS011;3639;51.308;5.624;2023-11-19T04:37:16;19.83;;;3.80;;
7195;SDS011;3639;51.308;5.624;2023-11-19T04:39:41;19.63;;;4.53;;
7195;SDS011;3639;51.308;5.624;2023-11-19T04:42:10;32.80;;;5.60;;
7195;SDS011;3639;51.308;5.624;2023-11-19T04:44:35;18.63;;;4.50;;
7195;SDS011;3639;51.308;5.624;2023-11-19T04:47:01;17.47;;;4.37;;
7195;SDS011;3639;51.308;5.624;2023-11-19T04:49:26;30.73;;;4.40;;
7195;SDS011;3639;51.308;5.624;2023-11-19T04:51:52;26.37;;;3.90;;
7195;SDS011;3639;51.308;5.624;2023-11-19T04:54:18;22.87;;;4.53;;
7195;SDS011;3639;51.308;5.624;2023-11-19T04:56:47;19.10;;;3.77;;
7195;SDS011;3639;51.308;5.624;2023-11-19T04:59:13;25.97;;;4.83;;
7195;SDS011;3639;51.308;5.624;2023-11-19T05:01:38;19.73;;;3.90;;
7195;SDS011;3639;51.308;5.624;2023-11-19T05:04:04;28.27;;;4.17;;
7195;SDS011;3639;51.308;5.624;2023-11-19T05:06:30;26.50;;;4.53;;
7195;SDS011;3639;51.308;5.624;2023-11-19T05:08:56;20.33;;;4.70;;
7195;SDS011;3639;51.308;5.624;2023-11-19T05:11:23;27.27;;;5.20;;
7195;SDS011;3639;51.308;5.624;2023-11-19T05:13:49;21.03;;;4.23;;
7195;SDS011;3639;51.308;5.624;2023-11-19T05:16:15;24.97;;;4.03;;
7195;SDS011;3639;51.308;5.624;2023-11-19T05:18:42;25.07;;;4.60;;
7195;SDS011;3639;51.308;5.624;2023-11-19T05:21:08;23.47;;;5.43;;
7195;SDS011;3639;51.308;5.624;2023-11-19T05:23:33;20.43;;;5.80;;
7195;SDS011;3639;51.308;5.624;2023-11-19T05:26:00;13.97;;;4.27;;
7195;SDS011;3639;51.308;5.624;2023-11-19T05:28:26;15.37;;;3.97;;
7195;SDS011;3639;51.308;5.624;2023-11-19T05:30:52;22.10;;;4.10;;
7195;SDS011;3639;51.308;5.624;2023-11-19T05:33:17;25.53;;;5.23;;
7195;SDS011;3639;51.308;5.624;2023-11-19T05:35:43;20.40;;;4.63;;
7195;SDS011;3639;51.308;5.624;2023-11-19T05:38:08;27.70;;;4.50;;
7195;SDS011;3639;51.308;5.624;2023-11-19T05:40:34;31.23;;;5.00;;
7195;SDS011;3639;51.308;5.624;2023-11-19T05:43:00;19.93;;;4.40;;
7195;SDS011;3639;51.308;5.624;2023-11-19T05:45:26;22.30;;;4.10;;
7195;SDS011;3639;51.308;5.624;2023-11-19T05:47:51;22.90;;;5.40;;
7195;SDS011;3639;51.308;5.624;2023-11-19T05:50:17;17.53;;;4.23;;
7195;SDS011;3639;51.308;5.624;2023-11-19T05:52:43;23.50;;;5.07;;
7195;SDS011;3639;51.308;5.624;2023-11-19T05:55:09;24.47;;;4.67;;
7195;SDS011;3639;51.308;5.624;2023-11-19T05:57:36;19.03;;;4.27;;
7195;SDS011;3639;51.308;5.624;2023-11-19T06:00:02;16.63;;;4.13;;
7195;SDS011;3639;51.308;5.624;2023-11-19T06:02:32;20.50;;;3.53;;
7195;SDS011;3639;51.308;5.624;2023-11-19T06:04:57;22.13;;;4.50;;
7195;SDS011;3639;51.308;5.624;2023-11-19T06:07:23;16.33;;;3.73;;
7195;SDS011;3639;51.308;5.624;2023-11-19T06:09:50;25.30;;;4.20;;
7195;SDS011;3639;51.308;5.624;2023-11-19T06:12:15;25.03;;;3.80;;
7195;SDS011;3639;51.308;5.624;2023-11-19T06:14:41;30.27;;;5.57;;
7195;SDS011;3639;51.308;5.624;2023-11-19T06:17:06;23.03;;;5.40;;
7195;SDS011;3639;51.308;5.624;2023-11-19T06:19:33;23.53;;;4.37;;
7195;SDS011;3639;51.308;5.624;2023-11-19T06:21:59;20.93;;;4.50;;
7195;SDS011;3639;51.308;5.624;2023-11-19T06:24:24;34.17;;;5.27;;
7195;SDS011;3639;51.308;5.624;2023-11-19T06:26:50;28.17;;;6.07;;
7195;SDS011;3639;51.308;5.624;2023-11-19T06:29:16;24.03;;;4.63;;
7195;SDS011;3639;51.308;5.624;2023-11-19T06:31:44;24.07;;;4.00;;
7195;SDS011;3639;51.308;5.624;2023-11-19T06:34:10;25.70;;;4.23;;
7195;SDS011;3639;51.308;5.624;2023-11-19T06:36:35;23.50;;;5.33;;
7195;SDS011;3639;51.308;5.624;2023-11-19T06:39:01;16.60;;;4.40;;
7195;SDS011;3639;51.308;5.624;2023-11-19T06:41:27;18.27;;;4.27;;
7195;SDS011;3639;51.308;5.624;2023-11-19T06:43:54;25.57;;;4.80;;
7195;SDS011;3639;51.308;5.624;2023-11-19T06:46:19;26.60;;;5.20;;
7195;SDS011;3639;51.308;5.624;2023-11-19T06:48:45;24.60;;;4.40;;
7195;SDS011;3639;51.308;5.624;2023-11-19T06:51:11;18.90;;;4.20;;
7195;SDS011;3639;51.308;5.624;2023-11-19T06:53:37;25.60;;;4.50;;
7195;SDS011;3639;51.308;5.624;2023-11-19T06:56:04;26.97;;;5.53;;
7195;SDS011;3639;51.308;5.624;2023-11-19T06:58:31;20.33;;;4.37;;
7195;SDS011;3639;51.308;5.624;2023-11-19T07:01:00;33.00;;;4.60;;
7195;SDS011;3639;51.308;5.624;2023-11-19T07:03:26;23.43;;;4.73;;
7195;SDS011;3639;51.308;5.624;2023-11-19T07:05:51;24.63;;;4.90;;
7195;SDS011;3639;51.308;5.624;2023-11-19T07:08:17;23.20;;;4.37;;
7195;SDS011;3639;51.308;5.624;2023-11-19T07:10:42;17.03;;;4.03;;
7195;SDS011;3639;51.308;5.624;2023-11-19T07:13:08;30.53;;;5.37;;
7195;SDS011;3639;51.308;5.624;2023-11-19T07:15:34;26.00;;;5.07;;
7195;SDS011;3639;51.308;5.624;2023-11-19T07:18:00;20.73;;;4.57;;
7195;SDS011;3639;51.308;5.624;2023-11-19T07:20:26;21.20;;;4.90;;
7195;SDS011;3639;51.308;5.624;2023-11-19T07:22:52;27.37;;;4.83;;
7195;SDS011;3639;51.308;5.624;2023-11-19T07:25:20;21.67;;;4.90;;
7195;SDS011;3639;51.308;5.624;2023-11-19T07:27:45;28.17;;;5.10;;
7195;SDS011;3639;51.308;5.624;2023-11-19T07:30:13;30.37;;;6.07;;
7195;SDS011;3639;51.308;5.624;2023-11-19T07:32:38;33.90;;;6.20;;
7195;SDS011;3639;51.308;5.624;2023-11-19T07:35:04;19.93;;;5.53;;
7195;SDS011;3639;51.308;5.624;2023-11-19T07:37:30;26.70;;;4.07;;
7195;SDS011;3639;51.308;5.624;2023-11-19T07:39:56;26.67;;;5.00;;
7195;SDS011;3639;51.308;5.624;2023-11-19T07:42:21;24.87;;;4.80;;
7195;SDS011;3639;51.308;5.624;2023-11-19T07:44:48;21.23;;;3.90;;
7195;SDS011;3639;51.308;5.624;2023-11-19T07:47:14;23.33;;;4.73;;
7195;SDS011;3639;51.308;5.624;2023-11-19T07:49:39;21.23;;;4.23;;
7195;SDS011;3639;51.308;5.624;2023-11-19T07:52:05;22.47;;;5.27;;
7195;SDS011;3639;51.308;5.624;2023-11-19T07:54:31;26.10;;;6.57;;
7195;SDS011;3639;51.308;5.624;2023-11-19T07:56:56;24.83;;;4.53;;
7195;SDS011;3639;51.308;5.624;2023-11-19T07:59:22;18.73;;;4.27;;
7195;SDS011;3639;51.308;5.624;2023-11-19T08:01:47;17.50;;;4.53;;
7195;SDS011;3639;51.308;5.624;2023-11-19T08:04:13;22.73;;;3.93;;
7195;SDS011;3639;51.308;5.624;2023-11-19T08:06:39;24.17;;;4.50;;
7195;SDS011;3639;51.308;5.624;2023-11-19T08:09:07;23.03;;;4.07;;
7195;SDS011;3639;51.308;5.624;2023-11-19T08:11:38;29.23;;;5.37;;
7195;SDS011;3639;51.308;5.624;2023-11-19T08:14:05;25.17;;;5.97;;
7195;SDS011;3639;51.308;5.624;2023-11-19T08:16:30;16.13;;;4.17;;
7195;SDS011;3639;51.308;5.624;2023-11-19T08:18:56;28.97;;;4.93;;
7195;SDS011;3639;51.308;5.624;2023-11-19T08:21:23;25.13;;;4.93;;
7195;SDS011;3639;51.308;5.624;2023-11-19T08:23:49;25.40;;;4.87;;
7195;SDS011;3639;51.308;5.624;2023-11-19T08:26:15;23.57;;;5.17;;
7195;SDS011;3639;51.308;5.624;2023-11-19T08:28:41;22.23;;;5.10;;
7195;SDS011;3639;51.308;5.624;2023-11-19T08:31:06;27.57;;;5.37;;
7195;SDS011;3639;51.308;5.624;2023-11-19T08:33:32;19.17;;;3.80;;
7195;SDS011;3639;51.308;5.624;2023-11-19T08:35:58;26.70;;;5.10;;
7195;SDS011;3639;51.308;5.624;2023-11-19T08:38:23;23.87;;;4.83;;
7195;SDS011;3639;51.308;5.624;2023-11-19T08:40:50;24.33;;;4.77;;
7195;SDS011;3639;51.308;5.624;2023-11-19T08:43:17;19.57;;;5.13;;
7195;SDS011;3639;51.308;5.624;2023-11-19T08:45:42;32.30;;;4.57;;
7195;SDS011;3639;51.308;5.624;2023-11-19T08:48:08;25.63;;;5.93;;
7195;SDS011;3639;51.308;5.624;2023-11-19T08:50:34;29.77;;;5.03;;
7195;SDS011;3639;51.308;5.624;2023-11-19T08:52:59;19.93;;;5.00;;
7195;SDS011;3639;51.308;5.624;2023-11-19T08:55:25;28.57;;;5.07;;
7195;SDS011;3639;51.308;5.624;2023-11-19T08:57:51;19.73;;;4.00;;
7195;SDS011;3639;51.308;5.624;2023-11-19T09:00:17;23.00;;;4.50;;
7195;SDS011;3639;51.308;5.624;2023-11-19T09:02:43;20.00;;;4.53;;
7195;SDS011;3639;51.308;5.624;2023-11-19T09:05:08;28.90;;;5.53;;
7195;SDS011;3639;51.308;5.624;2023-11-19T09:07:34;20.23;;;4.03;;
7195;SDS011;3639;51.308;5.624;2023-11-19T09:09:59;23.83;;;5.27;;
7195;SDS011;3639;51.308;5.624;2023-11-19T09:12:25;28.40;;;5.90;;
7195;SDS011;3639;51.308;5.624;2023-11-19T09:14:50;24.23;;;4.57;;
7195;SDS011;3639;51.308;5.624;2023-11-19T09:17:16;22.17;;;4.93;;
7195;SDS011;3639;51.308;5.624;2023-11-19T09:19:43;19.53;;;5.57;;
7195;SDS011;3639;51.308;5.624;2023-11-19T09:22:08;29.37;;;4.07;;
7195;SDS011;3639;51.308;5.624;2023-11-19T09:24:34;30.53;;;4.70;;
7195;SDS011;3639;51.308;5.624;2023-11-19T09:27:00;18.00;;;5.00;;
7195;SDS011;3639;51.308;5.624;2023-11-19T09:29:26;20.40;;;4.40;;
7195;SDS011;3639;51.308;5.624;2023-11-19T09:31:51;26.67;;;4.77;;
7195;SDS011;3639;51.308;5.624;2023-11-19T09:34:17;23.27;;;4.60;;
7195;SDS011;3639;51.308;5.624;2023-11-19T09:36:43;27.13;;;5.43;;
7195;SDS011;3639;51.308;5.624;2023-11-19T09:39:10;24.00;;;5.13;;
7195;SDS011;3639;51.308;5.624;2023-11-19T09:41:36;21.80;;;5.53;;
7195;SDS011;3639;51.308;5.624;2023-11-19T09:44:02;33.87;;;4.50;;
7195;SDS011;3639;51.308;5.624;2023-11-19T09:46:27;31.83;;;4.90;;
7195;SDS011;3639;51.308;5.624;2023-11-19T09:48:54;30.97;;;5.03;;
7195;SDS011;3639;51.308;5.624;2023-11-19T09:51:22;25.57;;;4.60;;
7195;SDS011;3639;51.308;5.624;2023-11-19T09:53:48;26.50;;;4.73;;
7195;SDS011;3639;51.308;5.624;2023-11-19T09:56:14;18.87;;;3.67;;
7195;SDS011;3639;51.308;5.624;2023-11-19T09:58:41;20.03;;;4.73;;
7195;SDS011;3639;51.308;5.624;2023-11-19T10:01:07;23.47;;;4.13;;
7195;SDS011;3639;51.308;5.624;2023-11-19T10:03:35;21.60;;;4.90;;
7195;SDS011;3639;51.308;5.624;2023-11-19T10:06:04;31.27;;;5.30;;
7195;SDS011;3639;51.308;5.624;2023-11-19T10:08:39;23.73;;;3.97;;
7195;SDS011;3639;51.308;5.624;2023-11-19T10:11:08;25.87;;;4.43;;
7195;SDS011;3639;51.308;5.624;2023-11-19T10:13:35;16.73;;;3.80;;
7195;SDS011;3639;51.308;5.624;2023-11-19T10:16:08;20.57;;;4.37;;
7195;SDS011;3639;51.308;5.624;2023-11-19T10:18:36;21.47;;;4.13;;
7195;SDS011;3639;51.308;5.624;2023-11-19T10:21:03;17.67;;;4.57;;
7195;SDS011;3639;51.308;5.624;2023-11-19T10:23:30;32.63;;;5.00;;
7195;SDS011;3639;51.308;5.624;2023-11-19T10:26:02;24.60;;;4.37;;
7195;SDS011;3639;51.308;5.624;2023-11-19T10:28:38;20.83;;;3.63;;
7195;SDS011;3639;51.308;5.624;2023-11-19T10:31:05;25.90;;;4.60;;
7195;SDS011;3639;51.308;5.624;2023-11-19T10:33:32;24.13;;;5.93;;
7195;SDS011;3639;51.308;5.624;2023-11-19T10:35:58;29.90;;;6.60;;
7195;SDS011;3639;51.308;5.624;2023-11-19T10:38:24;23.03;;;4.63;;
7195;SDS011;3639;51.308;5.624;2023-11-19T10:40:51;20.23;;;4.03;;
7195;SDS011;3639;51.308;5.624;2023-11-19T10:43:18;16.10;;;4.33;;
7195;SDS011;3639;51.308;5.624;2023-11-19T10:45:44;26.13;;;5.30;;
7195;SDS011;3639;51.308;5.624;2023-11-19T10:48:10;16.57;;;4.17;;
7195;SDS011;3639;51.308;5.624;2023-11-19T10:50:38;17.17;;;3.70;;
7195;SDS011;3639;51.308;5.624;2023-11-19T10:53:05;18.40;;;4.03;;
7195;SDS011;3639;51.308;5.624;2023-11-19T10:55:34;14.23;;;4.00;;
7195;SDS011;3639;51.308;5.624;2023-11-19T10:58:01;21.40;;;5.17;;
7195;SDS011;3639;51.308;5.624;2023-11-19T11:00:35;19.23;;;4.20;;
7195;SDS011;3639;51.308;5.624;2023-11-19T11:03:11;22.53;;;4.60;;
7195;SDS011;3639;51.308;5.624;2023-11-19T11:05:41;13.03;;;3.57;;
7195;SDS011;3639;51.308;5.624;2023-11-19T11:08:08;15.43;;;4.33;;
7195;SDS011;3639;51.308;5.624;2023-11-19T11:10:39;23.33;;;3.43;;
7195;SDS011;3639;51.308;5.624;2023-11-19T11:13:07;21.33;;;4.27;;
7195;SDS011;3639;51.308;5.624;2023-11-19T11:15:33;27.10;;;4.53;;
7195;SDS011;3639;51.308;5.624;2023-11-19T11:18:00;20.83;;;4.70;;
7195;SDS011;3639;51.308;5.624;2023-11-19T11:20:27;14.90;;;4.10;;
7195;SDS011;3639;51.308;5.624;2023-11-19T11:29:04;18.97;;;4.13;;
7195;SDS011;3639;51.308;5.624;2023-11-19T11:39:32;17.50;;;4.33;;
7195;SDS011;3639;51.308;5.624;2023-11-19T11:47:59;15.07;;;3.77;;
7195;SDS011;3639;51.308;5.624;2023-11-19T11:50:19;19.80;;;4.00;;
7195;SDS011;3639;51.308;5.624;2023-11-19T11:55:26;19.33;;;4.80;;
7195;SDS011;3639;51.308;5.624;2023-11-19T11:58:10;15.87;;;4.10;;
7195;SDS011;3639;51.308;5.624;2023-11-19T12:00:39;18.23;;;5.37;;
7195;SDS011;3639;51.308;5.624;2023-11-19T12:03:07;17.73;;;5.03;;
7195;SDS011;3639;51.308;5.624;2023-11-19T12:05:34;26.37;;;4.53;;
7195;SDS011;3639;51.308;5.624;2023-11-19T12:08:05;19.60;;;4.30;;
7195;SDS011;3639;51.308;5.624;2023-11-19T12:10:46;19.53;;;5.13;;
7195;SDS011;3639;51.308;5.624;2023-11-19T12:13:16;24.30;;;4.80;;
7195;SDS011;3639;51.308;5.624;2023-11-19T12:18:28;20.33;;;4.50;;
7195;SDS011;3639;51.308;5.624;2023-11-19T12:20:58;19.67;;;4.60;;
7195;SDS011;3639;51.308;5.624;2023-11-19T12:23:28;22.07;;;4.97;;
7195;SDS011;3639;51.308;5.624;2023-11-19T12:25:55;14.93;;;4.50;;
7195;SDS011;3639;51.308;5.624;2023-11-19T12:28:21;18.10;;;4.00;;
7195;SDS011;3639;51.308;5.624;2023-11-19T12:30:49;15.13;;;4.33;;
7195;SDS011;3639;51.308;5.624;2023-11-19T12:33:15;18.63;;;3.80;;
7195;SDS011;3639;51.308;5.624;2023-11-19T12:35:41;23.53;;;4.30;;
7195;SDS011;3639;51.308;5.624;2023-11-19T12:38:08;18.43;;;3.77;;
7195;SDS011;3639;51.308;5.624;2023-11-19T12:40:44;18.77;;;4.30;;
7195;SDS011;3639;51.308;5.624;2023-11-19T12:43:09;14.23;;;4.10;;
7195;SDS011;3639;51.308;5.624;2023-11-19T12:45:35;20.60;;;3.87;;
7195;SDS011;3639;51.308;5.624;2023-11-19T12:48:04;20.10;;;3.97;;
7195;SDS011;3639;51.308;5.624;2023-11-19T12:50:50;21.30;;;3.87;;
7195;SDS011;3639;51.308;5.624;2023-11-19T12:53:17;14.27;;;3.20;;
7195;SDS011;3639;51.308;5.624;2023-11-19T12:55:43;20.40;;;3.83;;
7195;SDS011;3639;51.308;5.624;2023-11-19T12:58:09;13.97;;;3.87;;
7195;SDS011;3639;51.308;5.624;2023-11-19T13:00:34;18.17;;;4.27;;
7195;SDS011;3639;51.308;5.624;2023-11-19T13:03:00;22.30;;;4.13;;
7195;SDS011;3639;51.308;5.624;2023-11-19T13:05:26;19.13;;;4.53;;
7195;SDS011;3639;51.308;5.624;2023-11-19T13:08:07;19.40;;;4.40;;
7195;SDS011;3639;51.308;5.624;2023-11-19T13:13:16;17.07;;;4.10;;
7195;SDS011;3639;51.308;5.624;2023-11-19T13:15:42;13.70;;;4.20;;
7195;SDS011;3639;51.308;5.624;2023-11-19T13:18:09;13.17;;;3.60;;
7195;SDS011;3639;51.308;5.624;2023-11-19T13:20:36;15.20;;;3.43;;
7195;SDS011;3639;51.308;5.624;2023-11-19T13:23:02;19.07;;;4.13;;
7195;SDS011;3639;51.308;5.624;2023-11-19T13:25:29;17.03;;;3.67;;
7195;SDS011;3639;51.308;5.624;2023-11-19T13:27:55;11.70;;;3.57;;
7195;SDS011;3639;51.308;5.624;2023-11-19T13:30:22;17.77;;;3.77;;
7195;SDS011;3639;51.308;5.624;2023-11-19T13:32:49;22.47;;;4.23;;
7195;SDS011;3639;51.308;5.624;2023-11-19T13:35:15;13.40;;;3.33;;
7195;SDS011;3639;51.308;5.624;2023-11-19T13:37:42;14.80;;;3.57;;
7195;SDS011;3639;51.308;5.624;2023-11-19T13:40:08;13.67;;;3.43;;
7195;SDS011;3639;51.308;5.624;2023-11-19T13:42:35;17.17;;;3.70;;
7195;SDS011;3639;51.308;5.624;2023-11-19T13:45:06;16.70;;;3.80;;
7195;SDS011;3639;51.308;5.624;2023-11-19T13:47:42;12.63;;;3.43;;
7195;SDS011;3639;51.308;5.624;2023-11-19T13:50:12;13.80;;;3.60;;
7195;SDS011;3639;51.308;5.624;2023-11-19T13:52:40;15.20;;;4.90;;
7195;SDS011;3639;51.308;5.624;2023-11-19T13:55:07;14.20;;;4.63;;
7195;SDS011;3639;51.308;5.624;2023-11-19T13:57:34;17.13;;;4.03;;
7195;SDS011;3639;51.308;5.624;2023-11-19T14:00:01;18.10;;;4.30;;
7195;SDS011;3639;51.308;5.624;2023-11-19T14:02:32;17.60;;;4.70;;
7195;SDS011;3639;51.308;5.624;2023-11-19T14:04:58;19.93;;;5.30;;
7195;SDS011;3639;51.308;5.624;2023-11-19T14:07:23;15.60;;;3.77;;
7195;SDS011;3639;51.308;5.624;2023-11-19T14:09:49;24.53;;;3.97;;
7195;SDS011;3639;51.308;5.624;2023-11-19T14:12:15;18.10;;;4.13;;
7195;SDS011;3639;51.308;5.624;2023-11-19T14:14:41;21.43;;;4.13;;
7195;SDS011;3639;51.308;5.624;2023-11-19T14:17:07;18.23;;;3.93;;
7195;SDS011;3639;51.308;5.624;2023-11-19T14:19:32;22.20;;;3.70;;
7195;SDS011;3639;51.308;5.624;2023-11-19T14:21:58;15.47;;;3.60;;
7195;SDS011;3639;51.308;5.624;2023-11-19T14:24:25;27.50;;;4.93;;
7195;SDS011;3639;51.308;5.624;2023-11-19T14:26:51;18.57;;;4.13;;
7195;SDS011;3639;51.308;5.624;2023-11-19T14:29:17;17.67;;;4.00;;
7195;SDS011;3639;51.308;5.624;2023-11-19T14:31:42;21.23;;;4.37;;
7195;SDS011;3639;51.308;5.624;2023-11-19T14:34:08;9.83;;;3.33;;
7195;SDS011;3639;51.308;5.624;2023-11-19T14:36:34;17.53;;;3.67;;
7195;SDS011;3639;51.308;5.624;2023-11-19T14:39:00;18.00;;;3.53;;
7195;SDS011;3639;51.308;5.624;2023-11-19T14:41:25;16.20;;;4.03;;
7195;SDS011;3639;51.308;5.624;2023-11-19T14:43:51;15.90;;;4.87;;
7195;SDS011;3639;51.308;5.624;2023-11-19T14:46:17;16.93;;;3.53;;
7195;SDS011;3639;51.308;5.624;2023-11-19T14:48:43;17.37;;;5.20;;
7195;SDS011;3639;51.308;5.624;2023-11-19T14:51:08;22.30;;;3.97;;
7195;SDS011;3639;51.308;5.624;2023-11-19T14:53:34;22.27;;;3.27;;
7195;SDS011;3639;51.308;5.624;2023-11-19T14:55:59;15.13;;;4.17;;
7195;SDS011;3639;51.308;5.624;2023-11-19T14:58:25;15.53;;;4.13;;
7195;SDS011;3639;51.308;5.624;2023-11-19T15:00:51;19.60;;;4.17;;
7195;SDS011;3639;51.308;5.624;2023-11-19T15:03:17;21.17;;;4.93;;
7195;SDS011;3639;51.308;5.624;2023-11-19T15:05:47;14.17;;;4.30;;
7195;SDS011;3639;51.308;5.624;2023-11-19T15:08:12;15.43;;;3.63;;
7195;SDS011;3639;51.308;5.624;2023-11-19T15:10:41;23.10;;;3.77;;
7195;SDS011;3639;51.308;5.624;2023-11-19T15:13:07;13.70;;;3.60;;
7195;SDS011;3639;51.308;5.624;2023-11-19T15:15:34;20.30;;;4.10;;
7195;SDS011;3639;51.308;5.624;2023-11-19T15:17:59;17.47;;;3.70;;
7195;SDS011;3639;51.308;5.624;2023-11-19T15:20:25;12.83;;;3.73;;
7195;SDS011;3639;51.308;5.624;2023-11-19T15:22:54;20.83;;;3.73;;
7195;SDS011;3639;51.308;5.624;2023-11-19T15:25:20;16.73;;;4.93;;
7195;SDS011;3639;51.308;5.624;2023-11-19T15:27:47;16.27;;;4.20;;